M S San Francisco — WZC3886 — position and weather

sailwx.info

Track history (hours):
 
Tides and Currents Weather Stations Pressure Air Temp Water Temp Dewpoint Dewpoint Depression Visibility Wind Speed Wind Dir Waves Ship Positions

M S San Francisco

Owner: GOLDEN GATE BRIDGE HWY & TRANSP DISTRICT, LARKSPUR, CA. More information available from US FCC via Universal Licensing System and Coast Guard Vessel Documentation Center.

Last reported at 2016-Sep-19 00:33 UTC. Time now 2016-Sep-27 08:45 UTC.
Position N 37°57' W 122°31'.
Warning: this ship's position is 8 days out of date.

Length 58 m.

Type: Passenger vessel. MMSI: 366963980.

Date/timePositionNaut miles runAvg speedWind from/ knotsBaromVisibWave heightAir tempDewpointWater temp
2016-Sep-19 00:33N 37°57' W 122°31'0 0.0
2016-Sep-18 02:33N 37°57' W 122°31'1110.5
2016-Sep-18 01:34N 37°48' W 122°23'5 5.4
2016-Sep-18 00:33N 37°51' W 122°29'0 0.0
2016-Sep-17 22:33N 37°51' W 122°29'5 4.8
2016-Sep-17 21:33N 37°49' W 122°24'0 0.5
2016-Sep-17 20:34N 37°49' W 122°23'2 1.8
2016-Sep-17 19:16N 37°51' W 122°25'4 0.3
2016-Sep-17 05:33N 37°47' W 122°23'0 0.0
2016-Sep-17 04:33N 37°47' W 122°23'12 2.9
2016-Sep-17 00:32N 37°57' W 122°31'4 0.2
2016-Sep-16 03:33N 37°55' W 122°27'4 3.6
2016-Sep-16 02:33N 37°51' W 122°29'1 0.7
2016-Sep-16 00:34N 37°51' W 122°27'4 2.0
2016-Sep-15 22:33N 37°48' W 122°23'10 9.7
2016-Sep-15 21:33N 37°56' W 122°30'1 0.9
2016-Sep-15 20:32N 37°57' W 122°31'4 0.2
2016-Sep-15 03:33N 37°54' W 122°27'7 3.6
2016-Sep-15 01:34N 37°48' W 122°23'0 0.0
2016-Sep-14 22:33N 37°48' W 122°24'1010.3
2016-Sep-14 21:33N 37°57' W 122°30'4 0.2
2016-Sep-14 03:33N 37°54' W 122°26'7 1.3
2016-Sep-13 22:34N 37°48' W 122°23'5 0.3
2016-Sep-13 02:34N 37°51' W 122°29'2 0.5
2016-Sep-12 23:33N 37°51' W 122°27'6 3.0
2016-Sep-12 21:33N 37°56' W 122°29'1 0.5
2016-Sep-12 19:33N 37°57' W 122°31'0 0.0
2016-Sep-12 17:33N 37°57' W 122°31'0 0.0
2016-Sep-12 14:33N 37°57' W 122°31'0 0.0
2016-Sep-12 13:33N 37°57' W 122°31'0 0.0
2016-Sep-12 12:33N 37°57' W 122°31'0 0.0
2016-Sep-12 11:33N 37°57' W 122°31'0 0.0
2016-Sep-12 10:33N 37°57' W 122°31'0 0.0
2016-Sep-12 07:34N 37°57' W 122°31'0 0.0
2016-Sep-12 06:33N 37°57' W 122°31'6 1.9
2016-Sep-12 03:34N 37°53' W 122°25'5 2.7
2016-Sep-12 01:34N 37°48' W 122°24'1 0.6
2016-Sep-11 23:33N 37°49' W 122°24'0 0.2
2016-Sep-11 22:33N 37°49' W 122°23'5 4.8
2016-Sep-11 21:33N 37°51' W 122°29'5 5.4
2016-Sep-11 20:33N 37°57' W 122°30'4 0.2
2016-Sep-11 03:33N 37°54' W 122°27'3 3.4
2016-Sep-11 02:33N 37°51' W 122°29'5 5.4
2016-Sep-11 01:33N 37°48' W 122°24'5 4.8
2016-Sep-11 00:33N 37°51' W 122°28'4 4.5
2016-Sep-10 23:33N 37°48' W 122°23'1 0.6
2016-Sep-10 22:33N 37°49' W 122°23'5 4.8
2016-Sep-10 21:33N 37°51' W 122°29'6 5.5
2016-Sep-10 20:33N 37°57' W 122°31'4 0.2
2016-Sep-10 03:33N 37°54' W 122°26'4 3.6
2016-Sep-10 02:33N 37°51' W 122°29'5 5.5
2016-Sep-10 01:34N 37°48' W 122°23'4 3.8
2016-Sep-10 00:33N 37°51' W 122°26'0 0.3
2016-Sep-09 23:33N 37°51' W 122°27'4 3.9
2016-Sep-09 22:33N 37°48' W 122°24'4 3.8
2016-Sep-09 21:33N 37°51' W 122°25'7 6.9
2016-Sep-09 20:33N 37°57' W 122°31'0 0.1
2016-Sep-09 19:33N 37°57' W 122°31'4 0.3
2016-Sep-09 03:33N 37°54' W 122°26'3 3.4
2016-Sep-09 02:33N 37°51' W 122°29'5 5.5
2016-Sep-09 01:34N 37°48' W 122°23'4 3.8
2016-Sep-09 00:33N 37°51' W 122°27'  
Track history (hours):
 
Tides and Currents Weather Stations Pressure Air Temp Water Temp Dewpoint Dewpoint Depression Visibility Wind Speed Wind Dir Waves Ship Positions

M S San Francisco

Owner: GOLDEN GATE BRIDGE HWY & TRANSP DISTRICT, LARKSPUR, CA. More information available from US FCC via Universal Licensing System and Coast Guard Vessel Documentation Center.

Last reported at 2016-Sep-19 00:33 UTC. Time now 2016-Sep-27 08:45 UTC.
Position N 37°57' W 122°31'.
Warning: this ship's position is 8 days out of date.

Length 58 m.

Type: Passenger vessel. MMSI: 366963980.

Date/timePositionNaut miles runAvg speedWind from/ knotsBaromVisibWave heightAir tempDewpointWater temp
2016-Sep-19 00:33N 37°57' W 122°31'0 0.0
2016-Sep-18 02:33N 37°57' W 122°31'1110.5
2016-Sep-18 01:34N 37°48' W 122°23'5 5.4
2016-Sep-18 00:33N 37°51' W 122°29'0 0.0
2016-Sep-17 22:33N 37°51' W 122°29'5 4.8
2016-Sep-17 21:33N 37°49' W 122°24'0 0.5
2016-Sep-17 20:34N 37°49' W 122°23'2 1.8
2016-Sep-17 19:16N 37°51' W 122°25'4 0.3
2016-Sep-17 05:33N 37°47' W 122°23'0 0.0
2016-Sep-17 04:33N 37°47' W 122°23'12 2.9
2016-Sep-17 00:32N 37°57' W 122°31'4 0.2
2016-Sep-16 03:33N 37°55' W 122°27'4 3.6
2016-Sep-16 02:33N 37°51' W 122°29'1 0.7
2016-Sep-16 00:34N 37°51' W 122°27'4 2.0
2016-Sep-15 22:33N 37°48' W 122°23'10 9.7
2016-Sep-15 21:33N 37°56' W 122°30'1 0.9
2016-Sep-15 20:32N 37°57' W 122°31'4 0.2
2016-Sep-15 03:33N 37°54' W 122°27'7 3.6
2016-Sep-15 01:34N 37°48' W 122°23'0 0.0
2016-Sep-14 22:33N 37°48' W 122°24'1010.3
2016-Sep-14 21:33N 37°57' W 122°30'4 0.2
2016-Sep-14 03:33N 37°54' W 122°26'7 1.3
2016-Sep-13 22:34N 37°48' W 122°23'5 0.3
2016-Sep-13 02:34N 37°51' W 122°29'2 0.5
2016-Sep-12 23:33N 37°51' W 122°27'6 3.0
2016-Sep-12 21:33N 37°56' W 122°29'1 0.5
2016-Sep-12 19:33N 37°57' W 122°31'0 0.0
2016-Sep-12 17:33N 37°57' W 122°31'0 0.0
2016-Sep-12 14:33N 37°57' W 122°31'0 0.0
2016-Sep-12 13:33N 37°57' W 122°31'0 0.0
2016-Sep-12 12:33N 37°57' W 122°31'0 0.0
2016-Sep-12 11:33N 37°57' W 122°31'0 0.0
2016-Sep-12 10:33N 37°57' W 122°31'0 0.0
2016-Sep-12 07:34N 37°57' W 122°31'0 0.0
2016-Sep-12 06:33N 37°57' W 122°31'6 1.9
2016-Sep-12 03:34N 37°53' W 122°25'5 2.7
2016-Sep-12 01:34N 37°48' W 122°24'1 0.6
2016-Sep-11 23:33N 37°49' W 122°24'0 0.2
2016-Sep-11 22:33N 37°49' W 122°23'5 4.8
2016-Sep-11 21:33N 37°51' W 122°29'5 5.4
2016-Sep-11 20:33N 37°57' W 122°30'4 0.2
2016-Sep-11 03:33N 37°54' W 122°27'3 3.4
2016-Sep-11 02:33N 37°51' W 122°29'5 5.4
2016-Sep-11 01:33N 37°48' W 122°24'5 4.8
2016-Sep-11 00:33N 37°51' W 122°28'4 4.5
2016-Sep-10 23:33N 37°48' W 122°23'1 0.6
2016-Sep-10 22:33N 37°49' W 122°23'5 4.8
2016-Sep-10 21:33N 37°51' W 122°29'6 5.5
2016-Sep-10 20:33N 37°57' W 122°31'4 0.2
2016-Sep-10 03:33N 37°54' W 122°26'4 3.6
2016-Sep-10 02:33N 37°51' W 122°29'5 5.5
2016-Sep-10 01:34N 37°48' W 122°23'4 3.8
2016-Sep-10 00:33N 37°51' W 122°26'0 0.3
2016-Sep-09 23:33N 37°51' W 122°27'4 3.9
2016-Sep-09 22:33N 37°48' W 122°24'4 3.8
2016-Sep-09 21:33N 37°51' W 122°25'7 6.9
2016-Sep-09 20:33N 37°57' W 122°31'0 0.1
2016-Sep-09 19:33N 37°57' W 122°31'4 0.3
2016-Sep-09 03:33N 37°54' W 122°26'3 3.4
2016-Sep-09 02:33N 37°51' W 122°29'5 5.5
2016-Sep-09 01:34N 37°48' W 122°23'4 3.8
2016-Sep-09 00:33N 37°51' W 122°27'  

Dump ship's entire track history